Time;durP1;ratioP1;P1;durP2;ratioP2;P2;SDS_P1;SDS_P2;PMS_P1;PMS_P2;Temp;Humidity;BMP_temperature;BMP_pressure;BME280_temperature;BME280_humidity;BME280_pressure;Samples;Min_cycle;Max_cycle;Signal;HPM_P1;HPM_P2
2022/02/14 03:01:07;;;;;;;0.20;0.00;;;13.40;99.90;;;;;;25236052;23;20196;-67
2022/02/14 03:11:10;;;;;;;0.20;0.00;;;13.40;99.90;;;;;;25329954;23;20168;-66
2022/02/14 03:21:16;;;;;;;0.20;0.00;;;13.30;99.90;;;;;;25330450;23;20215;-65
2022/02/14 03:31:20;;;;;;;0.20;0.10;;;13.40;99.90;;;;;;25329771;23;20168;-64
2022/02/14 03:41:25;;;;;;;0.20;0.10;;;13.10;99.90;;;;;;25330229;23;20184;-64
2022/02/14 03:51:31;;;;;;;0.20;0.10;;;13.00;99.90;;;;;;25328863;23;20164;-67
2022/02/14 04:01:36;;;;;;;0.20;0.10;;;12.80;99.90;;;;;;25329583;23;20269;-68
2022/02/14 04:11:40;;;;;;;0.20;0.10;;;12.70;99.90;;;;;;25328873;23;20167;-68
2022/02/14 04:21:45;;;;;;;0.20;0.10;;;12.60;99.90;;;;;;25329022;23;20168;-68
2022/02/14 04:31:49;;;;;;;0.20;0.00;;;12.60;99.90;;;;;;25329199;23;20164;-68
2022/02/14 04:41:54;;;;;;;0.20;0.10;;;12.60;99.90;;;;;;25324480;23;20192;-67
2022/02/14 04:51:58;;;;;;;0.20;0.00;;;12.60;99.90;;;;;;25322567;23;20176;-68
2022/02/14 05:02:04;;;;;;;0.20;0.10;;;12.50;99.90;;;;;;25322569;23;20192;-68
2022/02/14 05:12:08;;;;;;;0.20;0.10;;;12.50;99.90;;;;;;25325856;23;20188;-66
2022/02/14 05:22:13;;;;;;;0.20;0.10;;;12.30;99.90;;;;;;25326557;23;20186;-66
2022/02/14 05:32:17;;;;;;;0.20;0.10;;;12.40;99.90;;;;;;25325743;23;20196;-66
2022/02/14 05:42:23;;;;;;;0.20;0.00;;;12.40;99.90;;;;;;25323889;23;20200;-68
2022/02/14 05:52:27;;;;;;;0.20;0.00;;;12.40;99.90;;;;;;25326206;23;20292;-68
2022/02/14 06:02:32;;;;;;;0.20;0.10;;;12.20;99.90;;;;;;25332019;23;20192;-68
2022/02/14 06:12:36;;;;;;;0.20;0.00;;;12.00;99.90;;;;;;25305276;23;20203;-68
2022/02/14 06:22:41;;;;;;;0.20;0.10;;;12.00;99.90;;;;;;25329417;23;20164;-69
2022/02/14 06:32:45;;;;;;;0.20;0.10;;;12.00;99.90;;;;;;25327534;23;20192;-68
2022/02/14 06:42:50;;;;;;;0.20;0.10;;;12.10;99.90;;;;;;25326496;23;20196;-66
2022/02/14 06:52:54;;;;;;;0.20;0.10;;;12.00;99.90;;;;;;25325183;23;20804;-67
2022/02/14 07:02:59;;;;;;;0.20;0.00;;;11.90;99.90;;;;;;25318580;23;20188;-67
2022/02/14 07:13:03;;;;;;;0.20;0.10;;;11.80;99.90;;;;;;25316901;23;20203;-67
2022/02/14 07:23:09;;;;;;;0.20;0.10;;;12.10;99.90;;;;;;25324125;23;20164;-66
2022/02/14 07:33:12;;;;;;;0.20;0.00;;;12.10;99.90;;;;;;25322724;23;20203;-67
2022/02/14 07:43:17;;;;;;;0.20;0.00;;;12.20;99.90;;;;;;25299385;23;20184;-66
2022/02/14 07:53:22;;;;;;;0.20;0.10;;;12.40;99.90;;;;;;25322296;23;20574;-67
2022/02/14 08:03:27;;;;;;;0.20;0.10;;;12.70;99.90;;;;;;25319266;23;20211;-66
2022/02/14 08:13:31;;;;;;;0.20;0.10;;;13.20;99.90;;;;;;25321852;23;20195;-77
2022/02/14 08:23:36;;;;;;;0.20;0.10;;;13.50;99.90;;;;;;25297538;23;20180;-76
2022/02/14 08:33:40;;;;;;;0.20;0.00;;;13.80;99.90;;;;;;25321774;23;20191;-75
2022/02/14 08:43:51;;;;;;;0.20;0.00;;;13.90;99.90;;;;;;25324772;23;20195;-76
2022/02/14 08:53:57;;;;;;;0.20;0.03;;;14.00;99.90;;;;;;25324609;23;20257;-68
2022/02/14 09:04:03;;;;;;;0.20;0.10;;;14.30;99.90;;;;;;25316781;23;20195;-68
2022/02/14 09:14:06;;;;;;;0.20;0.00;;;14.60;99.90;;;;;;25317371;23;20195;-68
2022/02/14 09:24:12;;;;;;;3.60;0.67;;;14.60;99.90;;;;;;25315686;23;20183;-69
2022/02/14 09:34:19;;;;;;;0.20;0.00;;;14.60;99.90;;;;;;25317393;23;20276;-68
2022/02/14 09:44:24;;;;;;;0.20;0.00;;;14.60;99.90;;;;;;25322722;23;20188;-69
2022/02/14 09:54:28;;;;;;;0.20;0.10;;;15.00;99.90;;;;;;25313613;23;20188;-68
2022/02/14 10:04:34;;;;;;;0.20;0.00;;;15.20;99.90;;;;;;25318678;23;20200;-67
2022/02/14 10:14:38;;;;;;;0.20;0.10;;;15.40;99.90;;;;;;25317357;23;20188;-67
2022/02/14 10:24:44;;;;;;;0.20;0.10;;;15.70;99.90;;;;;;25312258;23;20571;-66
2022/02/14 10:34:52;;;;;;;0.20;0.10;;;15.70;99.90;;;;;;25319156;23;20195;-66
2022/02/14 10:45:08;;;;;;;0.20;0.00;;;16.30;99.90;;;;;;25325486;23;20541;-66
2022/02/14 10:55:15;;;;;;;0.20;0.10;;;16.60;99.90;;;;;;25317521;23;20192;-66
2022/02/14 11:05:21;;;;;;;0.20;0.10;;;16.80;99.90;;;;;;25312554;23;20200;-65
2022/02/14 11:15:27;;;;;;;0.20;0.00;;;17.80;99.90;;;;;;25315284;23;20192;-66
2022/02/14 11:25:39;;;;;;;0.20;0.10;;;18.20;99.90;;;;;;25314586;23;20153;-65
2022/02/14 11:35:58;;;;;;;0.20;0.10;;;17.20;99.90;;;;;;25309901;23;20191;-64
2022/02/14 11:46:19;;;;;;;0.20;0.00;;;16.80;99.90;;;;;;25308439;23;20213;-66
2022/02/14 11:56:31;;;;;;;0.20;0.10;;;17.10;99.90;;;;;;25308241;23;20192;-65
2022/02/14 12:07:15;;;;;;;0.20;0.10;;;17.50;99.90;;;;;;25308068;23;20207;-66
2022/02/14 12:28:08;;;;;;;0.20;0.00;;;16.50;99.90;;;;;;25306553;23;20222;-63
2022/02/14 12:38:12;;;;;;;0.20;0.00;;;15.90;99.90;;;;;;25307275;23;20187;-65
2022/02/14 12:48:33;;;;;;;0.20;0.10;;;15.80;99.90;;;;;;25305382;23;20207;-66
2022/02/14 12:58:46;;;;;;;0.20;0.07;;;15.50;99.90;;;;;;25301668;23;20273;-66
2022/02/14 13:08:52;;;;;;;0.20;0.10;;;15.20;99.90;;;;;;25305176;23;20180;-66
2022/02/14 13:18:56;;;;;;;0.20;0.10;;;15.70;99.90;;;;;;25281069;23;20454;-68
2022/02/14 13:29:01;;;;;;;0.20;0.10;;;18.20;99.90;;;;;;25275968;23;20191;-67
2022/02/14 13:39:05;;;;;;;0.20;0.13;;;17.10;99.90;;;;;;25298544;23;20192;-66
2022/02/14 13:49:10;;;;;;;0.20;0.07;;;19.80;99.90;;;;;;25304470;23;20196;-66
2022/02/14 13:59:15;;;;;;;0.20;0.00;;;20.30;99.90;;;;;;25303596;23;20211;-68
2022/02/14 14:09:21;;;;;;;0.20;0.10;;;20.30;99.90;;;;;;25305259;23;20211;-66
2022/02/14 14:19:25;;;;;;;0.20;0.00;;;20.90;99.90;;;;;;25312659;23;20196;-68
2022/02/14 14:29:30;;;;;;;0.20;0.00;;;21.40;99.90;;;;;;25314722;23;20176;-70
2022/02/14 14:39:35;;;;;;;0.20;0.00;;;22.60;99.90;;;;;;25315602;23;20199;-69
2022/02/14 14:49:41;;;;;;;0.20;0.00;;;22.40;99.90;;;;;;25315409;23;20194;-69
2022/02/14 14:59:44;;;;;;;0.20;0.00;;;23.40;99.90;;;;;;25313159;23;20235;-64
2022/02/14 15:09:50;;;;;;;0.20;0.00;;;24.00;99.90;;;;;;25314032;23;20172;-64
2022/02/14 15:19:53;;;;;;;0.20;0.00;;;23.40;99.90;;;;;;25311389;23;20476;-72
2022/02/14 15:29:59;;;;;;;0.20;0.00;;;22.30;99.90;;;;;;25312055;23;20362;-71
2022/02/14 15:40:06;;;;;;;0.20;0.00;;;22.40;99.90;;;;;;25313617;23;20744;-77
2022/02/14 15:50:11;;;;;;;0.20;0.00;;;21.50;99.90;;;;;;25309717;23;20195;-72
2022/02/14 16:00:16;;;;;;;0.20;0.00;;;19.40;99.90;;;;;;25309956;23;20222;-67
2022/02/14 16:10:21;;;;;;;0.20;0.00;;;19.30;99.90;;;;;;25286035;23;20179;-72
2022/02/14 16:20:25;;;;;;;0.20;0.10;;;17.60;99.90;;;;;;25308210;23;20191;-73
2022/02/14 16:30:31;;;;;;;0.20;0.10;;;17.40;99.90;;;;;;25313241;23;20164;-70
2022/02/14 16:40:34;;;;;;;0.20;0.10;;;17.90;99.90;;;;;;25311485;23;20299;-73
2022/02/14 16:50:48;;;;;;;0.20;0.00;;;17.00;99.90;;;;;;25287875;23;20245;-65
2022/02/14 17:00:51;;;;;;;0.20;0.00;;;15.30;99.90;;;;;;25308194;23;20200;-65
2022/02/14 17:10:57;;;;;;;0.20;0.10;;;14.10;99.90;;;;;;25310312;23;20168;-66
2022/02/14 17:21:04;;;;;;;0.20;0.20;;;14.10;99.90;;;;;;25310467;23;20191;-69
2022/02/14 17:31:09;;;;;;;0.20;0.00;;;14.10;99.90;;;;;;25319704;23;20194;-67
2022/02/14 17:41:13;;;;;;;0.20;0.10;;;13.80;99.90;;;;;;25320158;23;20203;-75
2022/02/14 17:51:19;;;;;;;0.20;0.00;;;13.70;99.90;;;;;;25323434;23;20179;-76
2022/02/14 18:01:22;;;;;;;0.20;0.00;;;13.50;99.90;;;;;;25327409;23;20200;-72
2022/02/14 18:11:28;;;;;;;0.20;0.00;;;13.70;99.90;;;;;;25327039;23;20195;-72
2022/02/14 18:21:32;;;;;;;0.20;0.10;;;13.60;99.90;;;;;;25327531;23;20187;-77
2022/02/14 18:31:38;;;;;;;0.20;0.00;;;13.60;99.90;;;;;;25326726;23;20177;-77
2022/02/14 18:41:41;;;;;;;0.20;0.17;;;13.60;99.90;;;;;;25327090;23;20268;-72
2022/02/14 18:51:47;;;;;;;0.20;0.10;;;13.40;99.90;;;;;;25327245;23;20164;-72
2022/02/14 19:01:53;;;;;;;0.20;0.00;;;13.40;99.90;;;;;;25325216;23;20204;-73
2022/02/14 19:12:10;;;;;;;0.20;0.10;;;13.10;99.90;;;;;;25324019;23;20164;-71
2022/02/14 19:22:19;;;;;;;0.20;0.10;;;13.00;99.90;;;;;;25316097;23;20286;-74
2022/02/14 19:32:24;;;;;;;0.20;0.10;;;12.80;99.90;;;;;;25319441;23;20168;-73
2022/02/14 19:42:28;;;;;;;0.20;0.10;;;12.50;99.90;;;;;;25326147;23;20199;-74
2022/02/14 19:52:33;;;;;;;0.20;0.10;;;12.30;99.90;;;;;;25325537;23;20175;-72
2022/02/14 20:02:42;;;;;;;0.20;0.10;;;12.30;99.90;;;;;;25323876;23;20200;-74
2022/02/14 20:12:48;;;;;;;0.20;0.10;;;12.00;99.90;;;;;;25324328;23;20175;-73
2022/02/14 20:22:57;;;;;;;0.20;0.10;;;11.60;99.90;;;;;;25323671;23;20195;-73
2022/02/14 20:33:02;;;;;;;0.20;0.20;;;11.00;99.90;;;;;;25323836;23;20169;-73
2022/02/14 20:43:07;;;;;;;0.20;0.10;;;10.40;99.90;;;;;;25322158;23;20196;-77
2022/02/14 20:53:12;;;;;;;3.13;2.93;;;10.20;99.90;;;;;;25325694;23;20187;-78
2022/02/14 21:03:16;;;;;;;0.20;0.10;;;9.80;99.90;;;;;;25324398;23;20214;-76
2022/02/14 21:13:26;;;;;;;0.20;0.10;;;9.50;99.90;;;;;;25324488;23;20179;-77
2022/02/14 21:23:30;;;;;;;0.20;0.10;;;9.30;99.90;;;;;;25322504;23;20207;-78
2022/02/14 21:33:35;;;;;;;0.20;0.10;;;9.00;99.90;;;;;;25322391;23;20172;-77
2022/02/14 21:43:39;;;;;;;0.20;0.10;;;9.10;99.90;;;;;;25295366;23;20204;-78
2022/02/14 21:53:46;;;;;;;0.20;0.10;;;9.00;99.90;;;;;;25318921;23;20167;-79
2022/02/14 22:03:50;;;;;;;0.20;0.10;;;9.10;99.90;;;;;;25321645;23;20207;-79
2022/02/14 22:13:55;;;;;;;0.20;0.10;;;8.80;99.90;;;;;;25319726;23;20180;-71
2022/02/14 22:23:58;;;;;;;0.20;0.10;;;9.10;99.90;;;;;;25315110;23;20204;-74
2022/02/14 22:34:04;;;;;;;0.20;0.10;;;8.90;99.90;;;;;;25323706;23;20180;-76
2022/02/14 22:44:07;;;;;;;0.20;0.10;;;9.20;99.90;;;;;;25332571;23;20222;-74
2022/02/14 22:54:13;;;;;;;0.20;0.10;;;9.50;99.90;;;;;;25333822;23;20176;-73
2022/02/14 23:04:16;;;;;;;0.20;0.10;;;9.70;99.90;;;;;;25326260;23;20540;-76
2022/02/14 23:14:25;;;;;;;0.20;0.00;;;9.70;99.90;;;;;;25329513;23;20168;-74
2022/02/14 23:24:29;;;;;;;0.20;0.00;;;9.90;99.90;;;;;;25332545;23;20192;-72
2022/02/14 23:34:34;;;;;;;0.20;0.10;;;10.10;99.90;;;;;;25330892;23;20179;-73
2022/02/14 23:44:38;;;;;;;0.20;0.10;;;10.10;99.90;;;;;;25330083;23;20204;-72
2022/02/14 23:54:43;;;;;;;0.20;0.10;;;9.90;99.90;;;;;;25330879;23;20179;-72
